sensor_id;sensor_type;location;lat;lon;timestamp;pressure;altitude;pressure_sealevel;temperature;humidity
54816;BME280;40715;55.752;37.884;2023-03-14T00:01:30;98729.84;;;29.61;23.79
54816;BME280;40715;55.752;37.884;2023-03-14T00:03:57;98721.53;;;29.63;23.84
54816;BME280;40715;55.752;37.884;2023-03-14T00:06:25;98719.19;;;29.59;23.76
54816;BME280;40715;55.752;37.884;2023-03-14T00:08:52;98710.03;;;29.60;23.83
54816;BME280;40715;55.752;37.884;2023-03-14T00:11:21;98710.03;;;29.60;23.72
54816;BME280;40715;55.752;37.884;2023-03-14T00:13:49;98695.41;;;29.61;23.77
54816;BME280;40715;55.752;37.884;2023-03-14T00:16:16;98699.16;;;29.60;23.82
54816;BME280;40715;55.752;37.884;2023-03-14T00:18:44;98692.22;;;29.58;23.82
54816;BME280;40715;55.752;37.884;2023-03-14T00:21:11;98680.34;;;29.59;23.73
54816;BME280;40715;55.752;37.884;2023-03-14T00:23:39;98666.78;;;29.59;23.81
54816;BME280;40715;55.752;37.884;2023-03-14T00:26:18;98668.75;;;29.65;23.58
54816;BME280;40715;55.752;37.884;2023-03-14T00:28:45;98660.50;;;29.58;23.56
54816;BME280;40715;55.752;37.884;2023-03-14T00:31:14;98665.56;;;29.61;23.66
54816;BME280;40715;55.752;37.884;2023-03-14T00:33:43;98653.56;;;29.56;23.53
54816;BME280;40715;55.752;37.884;2023-03-14T00:36:16;98657.78;;;29.58;23.55
54816;BME280;40715;55.752;37.884;2023-03-14T00:38:44;98655.94;;;29.59;23.61
54816;BME280;40715;55.752;37.884;2023-03-14T00:41:14;98637.81;;;29.51;23.48
54816;BME280;40715;55.752;37.884;2023-03-14T00:43:42;98643.56;;;29.56;23.48
54816;BME280;40715;55.752;37.884;2023-03-14T00:46:09;98643.38;;;29.58;23.25
54816;BME280;40715;55.752;37.884;2023-03-14T00:48:36;98632.88;;;29.55;23.50
54816;BME280;40715;55.752;37.884;2023-03-14T00:51:05;98634.59;;;29.56;23.56
54816;BME280;40715;55.752;37.884;2023-03-14T00:53:35;98632.38;;;29.51;23.43
54816;BME280;40715;55.752;37.884;2023-03-14T00:56:04;98636.63;;;29.54;23.37
54816;BME280;40715;55.752;37.884;2023-03-14T00:58:31;98630.22;;;29.47;23.36
54816;BME280;40715;55.752;37.884;2023-03-14T01:00:58;98646.28;;;29.56;23.33
54816;BME280;40715;55.752;37.884;2023-03-14T01:03:25;98637.28;;;29.56;23.36
54816;BME280;40715;55.752;37.884;2023-03-14T01:05:52;98624.56;;;29.56;23.50
54816;BME280;40715;55.752;37.884;2023-03-14T01:08:19;98627.28;;;29.56;23.39
54816;BME280;40715;55.752;37.884;2023-03-14T01:10:46;98611.53;;;29.52;23.27
54816;BME280;40715;55.752;37.884;2023-03-14T01:13:12;98612.38;;;29.52;23.57
54816;BME280;40715;55.752;37.884;2023-03-14T01:15:39;98620.34;;;29.54;23.34
54816;BME280;40715;55.752;37.884;2023-03-14T01:18:06;98620.69;;;29.51;23.32
54816;BME280;40715;55.752;37.884;2023-03-14T01:20:33;98619.69;;;29.52;23.43
54816;BME280;40715;55.752;37.884;2023-03-14T01:23:00;98618.44;;;29.54;23.49
54816;BME280;40715;55.752;37.884;2023-03-14T01:25:27;98614.91;;;29.54;23.34
54816;BME280;40715;55.752;37.884;2023-03-14T01:27:54;98592.25;;;29.47;23.23
54816;BME280;40715;55.752;37.884;2023-03-14T01:30:21;98603.41;;;29.52;23.42
54816;BME280;40715;55.752;37.884;2023-03-14T01:32:48;98608.66;;;29.53;23.27
54816;BME280;40715;55.752;37.884;2023-03-14T01:35:15;98595.72;;;29.55;23.34
54816;BME280;40715;55.752;37.884;2023-03-14T01:37:42;98567.75;;;29.55;23.29
54816;BME280;40715;55.752;37.884;2023-03-14T01:40:10;98565.59;;;29.50;23.12
54816;BME280;40715;55.752;37.884;2023-03-14T01:42:38;98544.03;;;29.49;23.24
54816;BME280;40715;55.752;37.884;2023-03-14T01:48:14;98533.88;;;29.51;23.09
54816;BME280;40715;55.752;37.884;2023-03-14T01:50:41;98545.47;;;29.44;23.21
54816;BME280;40715;55.752;37.884;2023-03-14T01:53:08;98545.47;;;29.44;23.34
54816;BME280;40715;55.752;37.884;2023-03-14T01:55:36;98540.38;;;29.41;23.35
54816;BME280;40715;55.752;37.884;2023-03-14T01:58:04;98518.84;;;29.40;23.37
54816;BME280;40715;55.752;37.884;2023-03-14T02:00:31;98524.97;;;29.42;23.21
54816;BME280;40715;55.752;37.884;2023-03-14T02:03:02;98511.28;;;29.35;23.23
54816;BME280;40715;55.752;37.884;2023-03-14T02:05:34;98520.56;;;29.41;23.31
54816;BME280;40715;55.752;37.884;2023-03-14T02:08:07;98502.56;;;29.40;23.25
54816;BME280;40715;55.752;37.884;2023-03-14T02:10:38;98514.94;;;29.42;23.13
54816;BME280;40715;55.752;37.884;2023-03-14T02:13:07;98504.09;;;29.42;23.17
54816;BME280;40715;55.752;37.884;2023-03-14T02:15:34;98506.16;;;29.40;23.12
54816;BME280;40715;55.752;37.884;2023-03-14T02:18:03;98494.63;;;29.38;23.21
54816;BME280;40715;55.752;37.884;2023-03-14T02:20:49;98480.97;;;29.32;23.08
54816;BME280;40715;55.752;37.884;2023-03-14T02:26:41;98469.03;;;29.56;22.97
54816;BME280;40715;55.752;37.884;2023-03-14T02:29:10;98467.50;;;29.38;22.87
54816;BME280;40715;55.752;37.884;2023-03-14T02:31:36;98482.25;;;29.36;22.93
54816;BME280;40715;55.752;37.884;2023-03-14T02:34:04;98477.22;;;29.33;23.03
54816;BME280;40715;55.752;37.884;2023-03-14T02:36:31;98449.44;;;29.31;22.88
54816;BME280;40715;55.752;37.884;2023-03-14T02:41:25;98428.38;;;29.33;23.15
54816;BME280;40715;55.752;37.884;2023-03-14T02:43:52;98428.00;;;29.36;22.96
54816;BME280;40715;55.752;37.884;2023-03-14T02:46:20;98422.78;;;29.34;23.26
54816;BME280;40715;55.752;37.884;2023-03-14T02:51:27;98418.84;;;29.37;23.08
54816;BME280;40715;55.752;37.884;2023-03-14T02:53:55;98424.28;;;29.37;23.19
54816;BME280;40715;55.752;37.884;2023-03-14T02:56:22;98401.06;;;29.34;23.28
54816;BME280;40715;55.752;37.884;2023-03-14T02:58:49;98409.41;;;29.33;23.27
54816;BME280;40715;55.752;37.884;2023-03-14T03:01:16;98405.28;;;29.37;23.81
54816;BME280;40715;55.752;37.884;2023-03-14T03:03:43;98396.13;;;29.38;23.65
54816;BME280;40715;55.752;37.884;2023-03-14T03:06:10;98382.06;;;29.34;23.72
54816;BME280;40715;55.752;37.884;2023-03-14T03:08:37;98409.03;;;29.36;23.69
54816;BME280;40715;55.752;37.884;2023-03-14T03:11:05;98409.88;;;29.36;23.94
54816;BME280;40715;55.752;37.884;2023-03-14T03:13:32;98390.88;;;29.36;23.80
54816;BME280;40715;55.752;37.884;2023-03-14T03:15:59;98390.31;;;29.26;23.84
54816;BME280;40715;55.752;37.884;2023-03-14T03:18:26;98405.47;;;29.35;24.05
54816;BME280;40715;55.752;37.884;2023-03-14T03:20:53;98399.03;;;29.36;23.86
54816;BME280;40715;55.752;37.884;2023-03-14T03:23:20;98378.53;;;29.34;23.77
54816;BME280;40715;55.752;37.884;2023-03-14T03:25:50;98405.84;;;29.32;24.00
54816;BME280;40715;55.752;37.884;2023-03-14T03:28:19;98383.78;;;29.35;23.86
54816;BME280;40715;55.752;37.884;2023-03-14T03:30:46;98387.22;;;29.29;23.85
54816;BME280;40715;55.752;37.884;2023-03-14T03:33:13;98375.06;;;29.25;23.86
54816;BME280;40715;55.752;37.884;2023-03-14T03:35:48;98362.91;;;29.36;23.93
54816;BME280;40715;55.752;37.884;2023-03-14T03:38:16;98375.94;;;29.40;23.95
54816;BME280;40715;55.752;37.884;2023-03-14T03:40:43;98369.19;;;29.36;23.50
54816;BME280;40715;55.752;37.884;2023-03-14T03:43:10;98353.47;;;29.32;23.97
54816;BME280;40715;55.752;37.884;2023-03-14T03:45:37;98334.84;;;29.29;24.04
54816;BME280;40715;55.752;37.884;2023-03-14T03:48:04;98336.22;;;29.24;24.69
54816;BME280;40715;55.752;37.884;2023-03-14T03:50:31;98327.06;;;29.25;25.04
54816;BME280;40715;55.752;37.884;2023-03-14T03:52:58;98327.56;;;29.29;25.15
54816;BME280;40715;55.752;37.884;2023-03-14T03:55:25;98315.03;;;29.28;25.28
54816;BME280;40715;55.752;37.884;2023-03-14T03:57:54;98318.56;;;29.29;25.62
54816;BME280;40715;55.752;37.884;2023-03-14T04:00:21;98322.13;;;29.29;25.82
54816;BME280;40715;55.752;37.884;2023-03-14T04:02:48;98335.03;;;29.27;25.61
54816;BME280;40715;55.752;37.884;2023-03-14T04:05:15;98304.56;;;29.25;25.56
54816;BME280;40715;55.752;37.884;2023-03-14T04:07:42;98305.72;;;29.22;25.73
54816;BME280;40715;55.752;37.884;2023-03-14T04:10:09;98312.53;;;29.18;25.95
54816;BME280;40715;55.752;37.884;2023-03-14T04:12:36;98313.41;;;29.19;25.78
54816;BME280;40715;55.752;37.884;2023-03-14T04:15:03;98319.84;;;29.18;26.12
54816;BME280;40715;55.752;37.884;2023-03-14T04:17:31;98316.94;;;29.19;26.10
54816;BME280;40715;55.752;37.884;2023-03-14T04:19:58;98315.63;;;29.15;26.05
54816;BME280;40715;55.752;37.884;2023-03-14T04:22:24;98322.75;;;29.16;26.34
54816;BME280;40715;55.752;37.884;2023-03-14T04:24:51;98316.47;;;29.16;26.56
54816;BME280;40715;55.752;37.884;2023-03-14T04:27:18;98322.75;;;29.16;26.46
54816;BME280;40715;55.752;37.884;2023-03-14T04:29:45;98282.44;;;29.13;26.70
54816;BME280;40715;55.752;37.884;2023-03-14T04:32:12;98287.69;;;29.15;26.72
54816;BME280;40715;55.752;37.884;2023-03-14T04:34:39;98285.16;;;29.13;26.86
54816;BME280;40715;55.752;37.884;2023-03-14T04:37:06;98289.72;;;29.13;27.00
54816;BME280;40715;55.752;37.884;2023-03-14T04:39:33;98277.56;;;29.08;27.01
54816;BME280;40715;55.752;37.884;2023-03-14T04:42:00;98283.00;;;29.08;26.98
54816;BME280;40715;55.752;37.884;2023-03-14T04:44:27;98280.09;;;29.10;26.91
54816;BME280;40715;55.752;37.884;2023-03-14T04:46:54;98278.44;;;29.09;27.29
54816;BME280;40715;55.752;37.884;2023-03-14T04:49:21;98280.28;;;29.08;27.01
54816;BME280;40715;55.752;37.884;2023-03-14T04:51:48;98253.34;;;29.07;27.16
54816;BME280;40715;55.752;37.884;2023-03-14T04:54:17;98249.81;;;29.06;27.52
54816;BME280;40715;55.752;37.884;2023-03-14T04:56:44;98251.13;;;29.10;27.59
54816;BME280;40715;55.752;37.884;2023-03-14T04:59:11;98241.09;;;29.11;27.54
54816;BME280;40715;55.752;37.884;2023-03-14T05:01:38;98232.16;;;29.10;27.54
54816;BME280;40715;55.752;37.884;2023-03-14T05:04:05;98237.19;;;29.14;27.89
54816;BME280;40715;55.752;37.884;2023-03-14T05:06:32;98210.72;;;29.01;28.06
54816;BME280;40715;55.752;37.884;2023-03-14T05:08:59;98222.94;;;29.12;27.75
54816;BME280;40715;55.752;37.884;2023-03-14T05:11:25;98226.34;;;29.14;27.84
54816;BME280;40715;55.752;37.884;2023-03-14T05:13:52;98232.97;;;29.11;28.07
54816;BME280;40715;55.752;37.884;2023-03-14T05:16:19;98221.94;;;29.13;27.84
54816;BME280;40715;55.752;37.884;2023-03-14T05:18:46;98217.19;;;29.15;27.87
54816;BME280;40715;55.752;37.884;2023-03-14T05:21:13;98207.34;;;29.14;28.28
54816;BME280;40715;55.752;37.884;2023-03-14T05:23:40;98211.09;;;29.13;28.49
54816;BME280;40715;55.752;37.884;2023-03-14T05:26:07;98201.66;;;29.08;28.30
54816;BME280;40715;55.752;37.884;2023-03-14T05:28:34;98208.19;;;29.14;28.50
54816;BME280;40715;55.752;37.884;2023-03-14T05:31:06;98200.91;;;29.15;29.00
54816;BME280;40715;55.752;37.884;2023-03-14T05:33:33;98207.81;;;29.17;29.13
54816;BME280;40715;55.752;37.884;2023-03-14T05:36:00;98209.69;;;29.17;29.44
54816;BME280;40715;55.752;37.884;2023-03-14T05:38:27;98209.03;;;29.15;29.89
54816;BME280;40715;55.752;37.884;2023-03-14T05:40:54;98208.00;;;29.16;30.16
54816;BME280;40715;55.752;37.884;2023-03-14T05:43:21;98209.69;;;29.17;29.95
54816;BME280;40715;55.752;37.884;2023-03-14T05:45:48;98228.81;;;29.23;30.12
54816;BME280;40715;55.752;37.884;2023-03-14T05:48:15;98224.56;;;29.21;30.20
54816;BME280;40715;55.752;37.884;2023-03-14T05:50:43;98206.97;;;29.17;30.09
54816;BME280;40715;55.752;37.884;2023-03-14T05:53:10;98224.06;;;29.17;30.49
54816;BME280;40715;55.752;37.884;2023-03-14T05:55:38;98205.47;;;29.14;30.55
54816;BME280;40715;55.752;37.884;2023-03-14T05:58:06;98229.44;;;29.25;30.28
54816;BME280;40715;55.752;37.884;2023-03-14T06:00:32;98228.41;;;29.26;30.50
54816;BME280;40715;55.752;37.884;2023-03-14T06:03:00;98223.00;;;29.26;30.51
54816;BME280;40715;55.752;37.884;2023-03-14T06:05:27;98233.84;;;29.26;30.64
54816;BME280;40715;55.752;37.884;2023-03-14T06:07:54;98225.56;;;29.20;30.70
54816;BME280;40715;55.752;37.884;2023-03-14T06:10:24;98238.44;;;29.26;30.66
54816;BME280;40715;55.752;37.884;2023-03-14T06:12:51;98224.56;;;29.21;30.80
54816;BME280;40715;55.752;37.884;2023-03-14T06:15:18;98249.81;;;29.36;30.67
54816;BME280;40715;55.752;37.884;2023-03-14T06:17:46;98237.75;;;29.39;30.48
54816;BME280;40715;55.752;37.884;2023-03-14T06:20:13;98218.78;;;29.39;30.80
54816;BME280;40715;55.752;37.884;2023-03-14T06:22:40;98218.41;;;29.42;31.15
54816;BME280;40715;55.752;37.884;2023-03-14T06:25:08;98198.69;;;29.33;31.23
54816;BME280;40715;55.752;37.884;2023-03-14T06:27:35;98207.34;;;29.43;31.46
54816;BME280;40715;55.752;37.884;2023-03-14T06:30:03;98214.63;;;29.43;31.62
54816;BME280;40715;55.752;37.884;2023-03-14T06:32:30;98198.53;;;29.41;31.76
54816;BME280;40715;55.752;37.884;2023-03-14T06:34:57;98205.47;;;29.44;31.85
54816;BME280;40715;55.752;37.884;2023-03-14T06:37:29;98218.00;;;29.45;31.86
54816;BME280;40715;55.752;37.884;2023-03-14T06:39:56;98202.75;;;29.44;32.05
54816;BME280;40715;55.752;37.884;2023-03-14T06:42:23;98208.19;;;29.44;32.06
54816;BME280;40715;55.752;37.884;2023-03-14T06:44:50;98196.31;;;29.45;32.05
54816;BME280;40715;55.752;37.884;2023-03-14T06:47:17;98214.81;;;29.41;31.34
54816;BME280;40715;55.752;37.884;2023-03-14T06:49:44;98199.97;;;29.37;31.18
54816;BME280;40715;55.752;37.884;2023-03-14T06:52:11;98215.41;;;29.37;31.03
54816;BME280;40715;55.752;37.884;2023-03-14T06:54:38;98186.97;;;29.33;30.88
54816;BME280;40715;55.752;37.884;2023-03-14T06:57:05;98187.63;;;29.35;30.57
54816;BME280;40715;55.752;37.884;2023-03-14T06:59:32;98184.25;;;29.33;30.57
54816;BME280;40715;55.752;37.884;2023-03-14T07:01:59;98140.59;;;29.27;30.51
54816;BME280;40715;55.752;37.884;2023-03-14T07:04:26;98196.50;;;29.29;30.32
54816;BME280;40715;55.752;37.884;2023-03-14T07:06:52;98191.47;;;29.25;30.25
54816;BME280;40715;55.752;37.884;2023-03-14T07:09:19;98176.41;;;29.23;30.22
54816;BME280;40715;55.752;37.884;2023-03-14T07:11:46;98178.25;;;29.22;30.09
54816;BME280;40715;55.752;37.884;2023-03-14T07:14:13;98198.09;;;29.23;30.01
54816;BME280;40715;55.752;37.884;2023-03-14T07:16:40;98172.56;;;29.17;29.67
54816;BME280;40715;55.752;37.884;2023-03-14T07:19:07;98204.75;;;29.20;29.61
54816;BME280;40715;55.752;37.884;2023-03-14T07:21:34;98202.50;;;29.24;29.81
54816;BME280;40715;55.752;37.884;2023-03-14T07:24:02;98191.66;;;29.24;29.85
54816;BME280;40715;55.752;37.884;2023-03-14T07:26:29;98209.44;;;29.26;29.74
54816;BME280;40715;55.752;37.884;2023-03-14T07:28:55;98221.97;;;29.27;29.73
54816;BME280;40715;55.752;37.884;2023-03-14T07:31:23;98211.13;;;29.27;29.73
54816;BME280;40715;55.752;37.884;2023-03-14T07:33:50;98209.06;;;29.30;29.75
54816;BME280;40715;55.752;37.884;2023-03-14T07:36:17;98219.72;;;29.31;29.72
54816;BME280;40715;55.752;37.884;2023-03-14T07:38:44;98218.00;;;29.30;29.77
54816;BME280;40715;55.752;37.884;2023-03-14T07:41:11;98224.31;;;29.31;29.59
54816;BME280;40715;55.752;37.884;2023-03-14T07:43:38;98221.78;;;29.29;29.71
54816;BME280;40715;55.752;37.884;2023-03-14T07:46:05;98206.16;;;29.31;29.74
54816;BME280;40715;55.752;37.884;2023-03-14T07:48:33;98210.75;;;29.31;29.51
54816;BME280;40715;55.752;37.884;2023-03-14T07:51:00;98214.09;;;29.33;29.57
54816;BME280;40715;55.752;37.884;2023-03-14T07:53:27;98215.78;;;29.34;29.42
54816;BME280;40715;55.752;37.884;2023-03-14T07:55:54;98214.09;;;29.33;29.32
54816;BME280;40715;55.752;37.884;2023-03-14T07:58:22;98225.59;;;29.35;29.42
54816;BME280;40715;55.752;37.884;2023-03-14T08:00:50;98204.94;;;29.34;29.29
54816;BME280;40715;55.752;37.884;2023-03-14T08:03:17;98207.44;;;29.35;29.38
54816;BME280;40715;55.752;37.884;2023-03-14T08:05:48;98204.75;;;29.35;29.43
54816;BME280;40715;55.752;37.884;2023-03-14T08:08:16;98204.75;;;29.35;29.14
54816;BME280;40715;55.752;37.884;2023-03-14T08:10:44;98226.44;;;29.35;29.31
54816;BME280;40715;55.752;37.884;2023-03-14T08:13:13;98222.91;;;29.35;29.08
54816;BME280;40715;55.752;37.884;2023-03-14T08:15:40;98211.00;;;29.36;29.13
54816;BME280;40715;55.752;37.884;2023-03-14T08:18:07;98215.59;;;29.35;29.00
54816;BME280;40715;55.752;37.884;2023-03-14T08:20:35;98223.28;;;29.32;29.14
54816;BME280;40715;55.752;37.884;2023-03-14T08:23:02;98220.00;;;29.36;28.88
54816;BME280;40715;55.752;37.884;2023-03-14T08:25:29;98207.66;;;29.34;29.14
54816;BME280;40715;55.752;37.884;2023-03-14T08:27:56;98220.38;;;29.33;28.91
54816;BME280;40715;55.752;37.884;2023-03-14T08:30:23;98219.25;;;29.27;28.92
54816;BME280;40715;55.752;37.884;2023-03-14T08:32:51;98232.53;;;29.37;28.79
54816;BME280;40715;55.752;37.884;2023-03-14T08:35:18;98241.41;;;29.31;28.79
54816;BME280;40715;55.752;37.884;2023-03-14T08:37:45;98250.66;;;29.37;28.75
54816;BME280;40715;55.752;37.884;2023-03-14T08:40:13;98222.31;;;29.39;28.77
54816;BME280;40715;55.752;37.884;2023-03-14T08:42:40;98236.66;;;29.33;28.55
54816;BME280;40715;55.752;37.884;2023-03-14T08:45:08;98238.97;;;29.36;28.69
54816;BME280;40715;55.752;37.884;2023-03-14T08:47:35;98227.75;;;29.39;28.52
54816;BME280;40715;55.752;37.884;2023-03-14T08:50:04;98227.09;;;29.37;28.60
54816;BME280;40715;55.752;37.884;2023-03-14T08:52:32;98235.69;;;29.41;28.27
54816;BME280;40715;55.752;37.884;2023-03-14T08:54:59;98233.38;;;29.38;28.46
54816;BME280;40715;55.752;37.884;2023-03-14T08:57:26;98243.19;;;29.39;28.31
54816;BME280;40715;55.752;37.884;2023-03-14T08:59:56;98237.97;;;29.37;28.14
54816;BME280;40715;55.752;37.884;2023-03-14T09:02:24;98229.63;;;29.39;28.35
54816;BME280;40715;55.752;37.884;2023-03-14T09:04:52;98233.16;;;29.39;28.13
54816;BME280;40715;55.752;37.884;2023-03-14T09:07:19;98232.34;;;29.39;28.24
54816;BME280;40715;55.752;37.884;2023-03-14T09:09:46;98213.91;;;29.34;28.07
54816;BME280;40715;55.752;37.884;2023-03-14T09:12:13;98227.75;;;29.39;28.18
54816;BME280;40715;55.752;37.884;2023-03-14T09:14:40;98218.78;;;29.39;28.09
54816;BME280;40715;55.752;37.884;2023-03-14T09:17:07;98212.50;;;29.38;27.91
54816;BME280;40715;55.752;37.884;2023-03-14T09:19:34;98197.72;;;29.41;27.80
54816;BME280;40715;55.752;37.884;2023-03-14T09:22:01;98208.75;;;29.39;27.99
54816;BME280;40715;55.752;37.884;2023-03-14T09:24:29;98212.31;;;29.40;27.66
54816;BME280;40715;55.752;37.884;2023-03-14T09:26:56;98216.25;;;29.37;27.68
54816;BME280;40715;55.752;37.884;2023-03-14T09:29:23;98206.44;;;29.36;27.91
54816;BME280;40715;55.752;37.884;2023-03-14T09:31:51;98222.50;;;29.38;27.73
54816;BME280;40715;55.752;37.884;2023-03-14T09:34:18;98217.72;;;29.40;27.74
54816;BME280;40715;55.752;37.884;2023-03-14T09:36:45;98208.28;;;29.36;27.96
54816;BME280;40715;55.752;37.884;2023-03-14T09:39:12;98219.59;;;29.39;27.73
54816;BME280;40715;55.752;37.884;2023-03-14T09:41:42;98216.91;;;29.39;27.59
54816;BME280;40715;55.752;37.884;2023-03-14T09:44:14;98221.09;;;29.42;27.46
54816;BME280;40715;55.752;37.884;2023-03-14T09:46:45;98224.00;;;29.40;27.74
54816;BME280;40715;55.752;37.884;2023-03-14T09:49:20;98228.38;;;29.41;27.33
54816;BME280;40715;55.752;37.884;2023-03-14T09:51:50;98222.75;;;29.43;27.49
54816;BME280;40715;55.752;37.884;2023-03-14T09:56:51;98225.03;;;29.39;27.18
54816;BME280;40715;55.752;37.884;2023-03-14T09:59:18;98231.09;;;29.41;27.12
54816;BME280;40715;55.752;37.884;2023-03-14T10:01:46;98217.53;;;29.41;27.16
54816;BME280;40715;55.752;37.884;2023-03-14T10:04:15;98194.56;;;29.37;27.27
54816;BME280;40715;55.752;37.884;2023-03-14T10:06:45;98203.78;;;29.43;27.11
54816;BME280;40715;55.752;37.884;2023-03-14T10:09:20;98204.81;;;29.42;27.03
54816;BME280;40715;55.752;37.884;2023-03-14T10:11:56;98196.69;;;29.42;26.96
54816;BME280;40715;55.752;37.884;2023-03-14T10:14:33;98204.63;;;29.43;26.83
54816;BME280;40715;55.752;37.884;2023-03-14T10:17:13;98212.66;;;29.52;26.51
54816;BME280;40715;55.752;37.884;2023-03-14T10:19:58;98207.53;;;29.42;26.70
54816;BME280;40715;55.752;37.884;2023-03-14T10:22:29;98209.19;;;29.43;26.77
54816;BME280;40715;55.752;37.884;2023-03-14T10:25:01;98199.59;;;29.40;26.90
54816;BME280;40715;55.752;37.884;2023-03-14T10:27:34;98194.81;;;29.42;26.59
54816;BME280;40715;55.752;37.884;2023-03-14T10:30:04;98175.00;;;29.42;26.53
54816;BME280;40715;55.752;37.884;2023-03-14T10:32:38;98177.03;;;29.40;26.67
54816;BME280;40715;55.752;37.884;2023-03-14T10:35:18;98180.66;;;29.47;26.45
54816;BME280;40715;55.752;37.884;2023-03-14T10:37:56;98172.91;;;29.44;26.86
54816;BME280;40715;55.752;37.884;2023-03-14T10:40:36;98176.72;;;29.50;26.35
54816;BME280;40715;55.752;37.884;2023-03-14T10:43:06;98182.06;;;29.43;26.20
54816;BME280;40715;55.752;37.884;2023-03-14T10:45:37;98198.53;;;29.41;26.30
54816;BME280;40715;55.752;37.884;2023-03-14T10:48:19;98201.53;;;29.47;26.33
54816;BME280;40715;55.752;37.884;2023-03-14T10:51:10;98203.41;;;29.46;26.32
54816;BME280;40715;55.752;37.884;2023-03-14T10:56:41;98183.75;;;29.44;25.97
54816;BME280;40715;55.752;37.884;2023-03-14T10:59:14;98189.75;;;29.39;26.33
54816;BME280;40715;55.752;37.884;2023-03-14T11:04:49;98174.50;;;29.53;25.92
54816;BME280;40715;55.752;37.884;2023-03-14T11:07:28;98170.38;;;29.42;26.07
54816;BME280;40715;55.752;37.884;2023-03-14T11:13:14;98190.56;;;29.55;25.89
54816;BME280;40715;55.752;37.884;2023-03-14T11:29:41;98174.13;;;29.41;25.72
54816;BME280;40715;55.752;37.884;2023-03-14T11:32:45;98184.13;;;29.56;25.68
54816;BME280;40715;55.752;37.884;2023-03-14T11:36:19;98194.63;;;29.44;25.82
54816;BME280;40715;55.752;37.884;2023-03-14T11:40:46;98186.22;;;29.39;25.67
54816;BME280;40715;55.752;37.884;2023-03-14T11:43:20;98178.28;;;29.37;25.64
54816;BME280;40715;55.752;37.884;2023-03-14T11:45:56;98194.16;;;29.40;25.60
54816;BME280;40715;55.752;37.884;2023-03-14T11:51:07;98190.41;;;29.41;25.66
54816;BME280;40715;55.752;37.884;2023-03-14T11:56:15;98183.13;;;29.42;25.47
54816;BME280;40715;55.752;37.884;2023-03-14T11:58:55;98187.69;;;29.41;25.51
54816;BME280;40715;55.752;37.884;2023-03-14T12:01:30;98192.47;;;29.39;25.58
54816;BME280;40715;55.752;37.884;2023-03-14T12:04:05;98187.88;;;29.40;25.61
54816;BME280;40715;55.752;37.884;2023-03-14T12:06:48;98191.72;;;29.46;25.56
54816;BME280;40715;55.752;37.884;2023-03-14T12:09:21;98196.22;;;29.38;25.50
54816;BME280;40715;55.752;37.884;2023-03-14T12:11:51;98199.97;;;29.37;25.27
54816;BME280;40715;55.752;37.884;2023-03-14T12:14:23;98207.94;;;29.39;25.38
54816;BME280;40715;55.752;37.884;2023-03-14T12:19:32;98210.44;;;29.40;25.13
54816;BME280;40715;55.752;37.884;2023-03-14T12:22:33;98223.19;;;29.61;25.25
54816;BME280;40715;55.752;37.884;2023-03-14T12:25:05;98221.50;;;29.39;25.00
54816;BME280;40715;55.752;37.884;2023-03-14T12:30:31;98199.78;;;29.39;25.07
54816;BME280;40715;55.752;37.884;2023-03-14T12:35:51;98215.19;;;29.38;25.17
54816;BME280;40715;55.752;37.884;2023-03-14T12:41:19;98209.69;;;29.47;24.89
54816;BME280;40715;55.752;37.884;2023-03-14T12:43:48;98223.34;;;29.38;25.05
54816;BME280;40715;55.752;37.884;2023-03-14T12:48:46;98224.41;;;29.37;24.75
54816;BME280;40715;55.752;37.884;2023-03-14T12:51:21;98246.53;;;29.41;24.80
54816;BME280;40715;55.752;37.884;2023-03-14T12:54:13;98235.88;;;29.39;24.61
54816;BME280;40715;55.752;37.884;2023-03-14T12:57:01;98240.53;;;29.46;24.76
54816;BME280;40715;55.752;37.884;2023-03-14T13:02:17;98233.06;;;29.48;24.46
54816;BME280;40715;55.752;37.884;2023-03-14T13:12:28;98223.53;;;29.37;24.25
54816;BME280;40715;55.752;37.884;2023-03-14T13:14:58;98220.19;;;29.35;24.30
54816;BME280;40715;55.752;37.884;2023-03-14T13:17:30;98223.72;;;29.35;24.42
54816;BME280;40715;55.752;37.884;2023-03-14T13:20:14;98221.75;;;29.44;24.34
54816;BME280;40715;55.752;37.884;2023-03-14T13:22:46;98227.94;;;29.38;24.12
54816;BME280;40715;55.752;37.884;2023-03-14T13:25:14;98222.69;;;29.36;24.39
54816;BME280;40715;55.752;37.884;2023-03-14T13:27:43;98213.91;;;29.34;23.99
54816;BME280;40715;55.752;37.884;2023-03-14T13:30:25;98174.06;;;29.35;24.03
54816;BME280;40715;55.752;37.884;2023-03-14T13:32:54;98209.16;;;29.36;24.22
54816;BME280;40715;55.752;37.884;2023-03-14T13:37:59;98197.44;;;29.36;23.93
54816;BME280;40715;55.752;37.884;2023-03-14T13:40:37;98201.00;;;29.36;23.72
54816;BME280;40715;55.752;37.884;2023-03-14T13:43:14;98208.13;;;29.37;24.12
54816;BME280;40715;55.752;37.884;2023-03-14T13:45:56;98218.19;;;29.43;23.90
54816;BME280;40715;55.752;37.884;2023-03-14T13:48:26;98201.56;;;29.32;23.81
54816;BME280;40715;55.752;37.884;2023-03-14T13:51:04;98209.19;;;29.43;24.06
54816;BME280;40715;55.752;37.884;2023-03-14T13:53:41;98212.31;;;29.40;23.94
54816;BME280;40715;55.752;37.884;2023-03-14T13:56:10;98225.22;;;29.38;23.69
54816;BME280;40715;55.752;37.884;2023-03-14T13:58:39;98199.97;;;29.37;23.98
54816;BME280;40715;55.752;37.884;2023-03-14T14:01:23;98214.47;;;29.44;23.79
54816;BME280;40715;55.752;37.884;2023-03-14T14:03:52;98194.91;;;29.34;23.70
54816;BME280;40715;55.752;37.884;2023-03-14T14:06:35;98206.56;;;29.50;23.74
54816;BME280;40715;55.752;37.884;2023-03-14T14:09:19;98211.81;;;29.51;23.75
54816;BME280;40715;55.752;37.884;2023-03-14T14:12:05;98205.28;;;29.46;23.80
54816;BME280;40715;55.752;37.884;2023-03-14T14:17:31;98215.28;;;29.45;23.77